Delphos, Ohio
Current Conditions -  °F | °C
As of 8:11 PM on Tuesday 21 Oct 2014 (Local Time) from KAOH Reporting Station
Overcast Overcast  
Wind Chill: 43°   Ceiling: 3100
Heat Index: 47°   Visibility: 10mi
Dew Point: 37°   Wind: 9mph
Humidity: 68%   Direction: 350°N
Pressure: 30.15"   Gusts: NA
Location:  40.84°N, 84.34°W
Report Text: KAOH 220011Z AUTO 35008KT 10SM OVC031 08/03 A3015 RMK AO2 T00830028
Loading
Personal Weather Stations






























Interactive Weather Map
Tropical Storm Tracking
New forecast layout! Learn more

10-Day Weather Forecast

Advertisements
Track Severe Weather on mobile